Time;durP1;ratioP1;P1;durP2;ratioP2;P2;SDS_P1;SDS_P2;PMS_P1;PMS_P2;Temp;Humidity;BMP_temperature;BMP_pressure;BME280_temperature;BME280_humidity;BME280_pressure;Samples;Min_cycle;Max_cycle;Signal;HPM_P1;HPM_P2
2023/03/17 00:00:22;;;;;;;3.93;1.80;;;4.80;90.80;;;;;;5020908;28;20232;-76
2023/03/17 00:02:50;;;;;;;3.13;1.80;;;4.80;90.90;;;;;;5009551;28;20580;-76
2023/03/17 00:05:21;;;;;;;3.80;2.00;;;4.80;91.20;;;;;;5007982;28;20238;-76
2023/03/17 00:07:50;;;;;;;3.47;2.00;;;4.80;91.00;;;;;;5027556;28;20230;-76
2023/03/17 00:10:21;;;;;;;3.73;1.83;;;4.80;91.10;;;;;;5017582;28;20706;-76
2023/03/17 00:12:49;;;;;;;3.23;2.00;;;4.80;91.20;;;;;;5019996;28;20235;-76
2023/03/17 00:15:16;;;;;;;2.93;2.10;;;4.70;91.20;;;;;;5021405;28;20258;-76
2023/03/17 00:17:44;;;;;;;4.43;2.13;;;4.70;91.40;;;;;;5023629;28;20769;-76
2023/03/17 00:20:18;;;;;;;3.87;1.93;;;4.70;91.50;;;;;;5024610;28;20926;-76
2023/03/17 00:22:45;;;;;;;2.60;1.90;;;4.80;91.70;;;;;;5022356;28;20230;-76
2023/03/17 00:25:22;;;;;;;3.47;1.73;;;4.80;91.70;;;;;;5018246;28;20220;-76
2023/03/17 00:27:49;;;;;;;4.43;2.13;;;4.80;91.70;;;;;;5025826;28;20239;-77
2023/03/17 00:30:16;;;;;;;4.33;2.10;;;4.70;92.00;;;;;;5028444;28;20329;-76
2023/03/17 00:32:45;;;;;;;3.70;2.23;;;4.70;91.90;;;;;;5018508;28;20232;-76
2023/03/17 00:35:21;;;;;;;4.53;2.07;;;4.80;91.90;;;;;;5014193;28;20231;-77
2023/03/17 00:37:49;;;;;;;3.57;2.00;;;4.70;92.00;;;;;;5024547;28;20231;-76
2023/03/17 00:40:20;;;;;;;3.00;1.97;;;4.80;92.00;;;;;;5029664;28;20223;-76
2023/03/17 00:42:47;;;;;;;3.40;2.07;;;4.70;92.20;;;;;;5021378;28;20231;-76
2023/03/17 00:45:14;;;;;;;4.97;2.20;;;4.80;92.30;;;;;;5019377;28;20587;-77
2023/03/17 00:47:41;;;;;;;5.87;2.20;;;4.80;92.20;;;;;;5030936;28;20236;-77
2023/03/17 00:50:13;;;;;;;3.13;2.00;;;4.80;92.20;;;;;;5023782;28;20235;-76
2023/03/17 00:52:39;;;;;;;3.17;2.23;;;4.80;92.40;;;;;;5025397;28;20236;-77
2023/03/17 00:55:08;;;;;;;3.13;2.00;;;4.80;92.20;;;;;;5030837;28;20230;-76
2023/03/17 00:57:36;;;;;;;3.70;2.00;;;4.80;92.40;;;;;;5024578;28;20222;-76
2023/03/17 01:00:04;;;;;;;3.30;2.30;;;4.80;92.40;;;;;;5033552;28;20227;-77
2023/03/17 01:02:32;;;;;;;3.43;2.23;;;4.80;92.50;;;;;;5022476;28;20228;-76
2023/03/17 01:04:59;;;;;;;4.10;2.20;;;4.80;92.60;;;;;;5021437;28;20214;-76
2023/03/17 01:07:29;;;;;;;4.43;2.47;;;4.80;92.70;;;;;;5025696;28;20238;-77
2023/03/17 01:09:56;;;;;;;2.73;2.23;;;4.70;92.80;;;;;;5014493;28;20747;-77
2023/03/17 01:12:23;;;;;;;3.27;2.17;;;4.70;92.90;;;;;;5025614;28;21930;-77
2023/03/17 01:14:52;;;;;;;3.27;2.30;;;4.70;92.80;;;;;;5025625;28;20229;-77
2023/03/17 01:17:19;;;;;;;5.87;2.40;;;4.80;93.00;;;;;;5017107;28;20316;-77
2023/03/17 01:19:46;;;;;;;3.57;2.40;;;4.70;93.00;;;;;;5020732;28;20233;-77
2023/03/17 01:22:13;;;;;;;3.33;2.30;;;4.70;93.00;;;;;;5019759;28;20315;-78
2023/03/17 01:24:40;;;;;;;3.30;2.20;;;4.70;93.20;;;;;;5028608;28;20245;-77
2023/03/17 01:27:08;;;;;;;3.00;2.33;;;4.60;93.20;;;;;;5013167;28;20819;-77
2023/03/17 01:29:35;;;;;;;5.27;2.20;;;4.60;93.30;;;;;;5026523;28;20244;-77
2023/03/17 01:32:03;;;;;;;4.03;1.83;;;4.60;93.60;;;;;;5021906;28;20321;-77
2023/03/17 01:34:30;;;;;;;4.63;2.20;;;4.60;93.50;;;;;;5026118;28;20613;-77
2023/03/17 01:36:57;;;;;;;2.83;2.33;;;4.50;93.60;;;;;;5024075;28;20232;-77
2023/03/17 01:39:24;;;;;;;2.73;2.17;;;4.40;93.80;;;;;;5025160;28;20252;-77
2023/03/17 01:41:55;;;;;;;4.97;2.23;;;4.40;94.10;;;;;;5015833;28;20224;-77
2023/03/17 01:44:23;;;;;;;2.50;2.13;;;4.40;94.10;;;;;;5014905;28;20714;-77
2023/03/17 01:46:50;;;;;;;3.47;2.33;;;4.30;94.30;;;;;;5018683;28;20758;-76
2023/03/17 01:49:26;;;;;;;5.87;2.30;;;4.30;94.20;;;;;;5028456;28;20240;-76
2023/03/17 01:52:04;;;;;;;2.90;2.10;;;4.30;94.60;;;;;;5039104;28;20227;-77
2023/03/17 01:54:37;;;;;;;4.83;2.40;;;4.20;94.70;;;;;;5018568;28;20214;-76
2023/03/17 01:57:11;;;;;;;3.53;2.27;;;4.20;94.80;;;;;;5020606;28;20234;-76
2023/03/17 01:59:44;;;;;;;4.20;2.57;;;4.10;95.00;;;;;;5024113;28;20322;-76
2023/03/17 02:02:15;;;;;;;3.87;2.40;;;4.10;95.00;;;;;;5026851;28;20232;-76
2023/03/17 02:04:43;;;;;;;4.90;2.47;;;4.10;95.20;;;;;;5020667;28;20247;-77
2023/03/17 02:07:11;;;;;;;3.20;2.17;;;4.00;95.30;;;;;;5023359;28;20218;-77
2023/03/17 02:09:41;;;;;;;5.73;2.40;;;4.10;95.30;;;;;;5021998;28;20275;-77
2023/03/17 02:12:10;;;;;;;3.93;2.83;;;4.00;95.40;;;;;;5018957;28;20259;-76
2023/03/17 02:14:37;;;;;;;3.87;2.23;;;4.00;95.40;;;;;;5022844;28;20226;-76
2023/03/17 02:17:04;;;;;;;3.87;2.40;;;4.00;95.60;;;;;;5018131;28;20233;-76
2023/03/17 02:19:30;;;;;;;4.20;2.20;;;4.00;95.70;;;;;;5021711;28;20334;-77
2023/03/17 02:22:00;;;;;;;2.63;2.10;;;4.00;95.60;;;;;;5021420;28;20232;-76
2023/03/17 02:24:31;;;;;;;4.87;2.30;;;4.00;95.90;;;;;;5018802;28;20231;-75
2023/03/17 02:27:04;;;;;;;4.40;2.40;;;3.90;96.20;;;;;;5019287;28;20225;-76
2023/03/17 02:29:33;;;;;;;4.43;2.50;;;3.90;96.10;;;;;;5019489;28;20220;-76
2023/03/17 02:32:01;;;;;;;3.90;2.20;;;3.90;96.20;;;;;;5020349;28;20979;-77
2023/03/17 02:34:30;;;;;;;4.43;2.40;;;3.90;96.10;;;;;;5020461;28;20233;-77
2023/03/17 02:36:58;;;;;;;4.33;2.13;;;3.90;96.60;;;;;;5016641;28;20300;-77
2023/03/17 02:39:26;;;;;;;4.03;2.00;;;3.90;96.40;;;;;;5016620;28;20233;-76
2023/03/17 02:41:53;;;;;;;4.83;2.10;;;3.90;96.30;;;;;;5019769;28;20232;-77
2023/03/17 02:44:19;;;;;;;3.83;2.10;;;3.90;96.50;;;;;;5021958;28;21278;-76
2023/03/17 02:46:46;;;;;;;4.17;2.60;;;3.90;96.60;;;;;;5027492;28;20257;-76
2023/03/17 02:49:14;;;;;;;3.60;2.20;;;3.90;96.90;;;;;;5025363;28;20221;-77
2023/03/17 02:51:41;;;;;;;3.90;2.43;;;3.90;96.80;;;;;;5021364;28;20319;-77
2023/03/17 02:54:09;;;;;;;3.17;2.37;;;3.90;96.80;;;;;;5025196;28;20240;-77
2023/03/17 02:56:36;;;;;;;3.73;2.30;;;3.80;97.00;;;;;;5041335;23;20380;-80
2023/03/17 02:59:03;;;;;;;3.70;2.00;;;3.90;96.90;;;;;;5036143;28;20227;-80
2023/03/17 03:01:30;;;;;;;4.53;2.67;;;3.90;96.90;;;;;;5027704;28;20916;-81
2023/03/17 03:03:57;;;;;;;3.40;2.40;;;3.90;97.00;;;;;;5032850;28;20860;-81
2023/03/17 03:06:24;;;;;;;3.60;2.63;;;3.90;97.00;;;;;;5037933;28;20240;-81
2023/03/17 03:08:52;;;;;;;4.03;2.33;;;3.90;97.20;;;;;;5030131;28;20360;-80
2023/03/17 03:11:20;;;;;;;4.00;2.80;;;3.90;97.10;;;;;;5027733;28;20237;-81
2023/03/17 03:13:47;;;;;;;4.63;2.60;;;3.90;97.20;;;;;;5030239;28;20224;-81
2023/03/17 03:16:13;;;;;;;4.73;2.60;;;4.00;97.20;;;;;;5024287;28;20215;-80
2023/03/17 03:18:40;;;;;;;3.47;2.43;;;3.90;97.30;;;;;;5026829;28;20284;-80
2023/03/17 03:21:09;;;;;;;3.70;2.63;;;4.00;97.30;;;;;;5026263;28;20304;-81
2023/03/17 03:23:36;;;;;;;5.63;2.90;;;4.00;97.20;;;;;;5028055;28;20226;-81
2023/03/17 03:26:03;;;;;;;4.30;3.10;;;4.00;97.30;;;;;;5033267;28;20225;-81
2023/03/17 03:28:31;;;;;;;5.73;2.60;;;4.00;97.40;;;;;;5029759;28;20606;-81
2023/03/17 03:30:58;;;;;;;4.37;2.40;;;4.00;97.60;;;;;;5031151;28;20219;-81
2023/03/17 03:33:25;;;;;;;5.83;2.93;;;4.00;97.40;;;;;;5028354;28;20225;-80
2023/03/17 03:35:52;;;;;;;4.00;2.27;;;4.10;97.40;;;;;;5032873;28;20830;-80
2023/03/17 03:38:19;;;;;;;5.53;3.23;;;4.10;97.40;;;;;;5027770;28;20232;-80
2023/03/17 03:40:46;;;;;;;4.30;2.73;;;4.10;97.50;;;;;;5027415;28;20225;-80
2023/03/17 03:43:13;;;;;;;6.13;3.03;;;4.10;97.50;;;;;;5025594;28;20716;-80
2023/03/17 03:45:41;;;;;;;4.70;2.70;;;4.10;97.50;;;;;;5026289;28;20239;-82
2023/03/17 03:48:08;;;;;;;4.03;2.53;;;4.10;97.60;;;;;;5031304;28;20773;-81
2023/03/17 03:50:35;;;;;;;3.20;2.43;;;4.10;97.60;;;;;;5034003;28;20238;-81
2023/03/17 03:53:02;;;;;;;4.47;2.80;;;4.10;97.40;;;;;;5035285;28;20289;-81
2023/03/17 03:55:29;;;;;;;6.07;3.20;;;4.10;97.60;;;;;;5034566;28;20236;-81
2023/03/17 03:57:56;;;;;;;5.07;3.20;;;4.10;97.60;;;;;;5027246;28;20217;-82
2023/03/17 04:00:23;;;;;;;3.67;2.60;;;4.20;97.60;;;;;;5028529;28;20228;-81
2023/03/17 04:02:51;;;;;;;6.90;2.50;;;4.10;97.60;;;;;;5030091;28;20223;-82
2023/03/17 04:05:18;;;;;;;4.10;3.17;;;4.10;97.70;;;;;;5028228;28;20228;-82
2023/03/17 04:07:46;;;;;;;2.77;2.40;;;4.10;97.70;;;;;;5026245;28;20293;-81
2023/03/17 04:10:15;;;;;;;5.70;3.23;;;4.10;97.90;;;;;;5029863;28;20225;-81
2023/03/17 04:12:42;;;;;;;5.73;2.83;;;4.00;98.00;;;;;;5031162;28;20694;-81
2023/03/17 04:15:14;;;;;;;4.20;3.00;;;4.00;97.70;;;;;;5031949;28;20268;-82
2023/03/17 04:17:41;;;;;;;4.53;2.97;;;4.00;97.70;;;;;;5029876;28;20233;-81
2023/03/17 04:20:11;;;;;;;5.47;2.63;;;4.00;97.80;;;;;;5022802;28;20229;-81
2023/03/17 04:22:39;;;;;;;5.23;3.17;;;4.00;97.80;;;;;;5024393;28;20217;-82
2023/03/17 04:25:07;;;;;;;4.03;2.67;;;3.90;97.90;;;;;;5027357;28;20219;-82
2023/03/17 04:27:35;;;;;;;4.03;3.17;;;4.00;97.90;;;;;;5033717;28;20221;-81
2023/03/17 04:30:02;;;;;;;5.33;2.63;;;3.90;98.20;;;;;;5034563;28;20230;-81
2023/03/17 04:32:29;;;;;;;6.00;3.30;;;3.90;98.30;;;;;;5047448;28;20299;-80
2023/03/17 04:34:56;;;;;;;4.30;2.73;;;3.80;98.20;;;;;;5023392;28;20248;-81
2023/03/17 04:37:25;;;;;;;4.87;3.10;;;3.80;98.00;;;;;;5029116;28;20227;-81
2023/03/17 04:39:52;;;;;;;5.77;3.03;;;3.80;98.20;;;;;;5040645;28;20229;-81
2023/03/17 04:42:18;;;;;;;5.17;3.23;;;3.80;98.10;;;;;;5028815;28;20227;-80
2023/03/17 04:44:45;;;;;;;4.77;3.07;;;3.80;98.10;;;;;;5023793;28;20232;-81
2023/03/17 04:47:12;;;;;;;4.20;2.73;;;3.70;98.50;;;;;;5027542;28;20243;-81
2023/03/17 04:49:39;;;;;;;4.67;3.20;;;3.70;98.20;;;;;;5041966;28;20228;-80
2023/03/17 04:52:06;;;;;;;4.53;2.90;;;3.70;98.20;;;;;;5026022;28;20232;-81
2023/03/17 04:54:35;;;;;;;4.37;3.10;;;3.70;98.50;;;;;;5018915;28;20231;-80
2023/03/17 04:57:02;;;;;;;6.27;3.10;;;3.60;98.50;;;;;;5023534;28;20236;-80
2023/03/17 04:59:29;;;;;;;5.70;3.77;;;3.60;98.50;;;;;;5031275;28;20703;-81
2023/03/17 05:01:56;;;;;;;4.37;3.10;;;3.60;98.90;;;;;;5030313;28;20220;-80
2023/03/17 05:04:22;;;;;;;5.80;3.20;;;3.60;98.70;;;;;;5028443;28;20223;-80
2023/03/17 05:06:50;;;;;;;3.23;2.77;;;3.50;98.90;;;;;;5025966;28;20322;-80
2023/03/17 05:09:17;;;;;;;3.50;3.10;;;3.50;98.90;;;;;;5024185;28;20224;-80
2023/03/17 05:11:45;;;;;;;5.63;3.20;;;3.60;98.80;;;;;;5025719;28;21007;-81
2023/03/17 05:14:12;;;;;;;7.87;3.17;;;3.60;99.00;;;;;;5029714;28;20370;-81
2023/03/17 05:16:39;;;;;;;6.47;3.23;;;3.60;98.90;;;;;;5029239;28;20222;-81
2023/03/17 05:19:06;;;;;;;5.53;3.27;;;3.60;99.10;;;;;;5025517;28;20240;-81
2023/03/17 05:21:33;;;;;;;3.87;3.33;;;3.50;99.10;;;;;;5025547;28;20239;-81
2023/03/17 05:24:00;;;;;;;6.07;3.17;;;3.50;99.10;;;;;;5016507;28;20886;-83
2023/03/17 05:26:27;;;;;;;6.57;3.70;;;3.50;99.10;;;;;;5024714;28;20257;-84
2023/03/17 05:28:55;;;;;;;4.10;3.13;;;3.60;98.90;;;;;;5025842;28;20221;-82
2023/03/17 05:31:21;;;;;;;5.33;3.40;;;3.50;99.10;;;;;;5023978;28;20216;-82
2023/03/17 05:33:49;;;;;;;4.13;3.23;;;3.50;99.10;;;;;;5024816;28;20226;-81
2023/03/17 05:36:16;;;;;;;4.30;3.10;;;3.50;99.40;;;;;;5025484;28;20375;-81
2023/03/17 05:38:44;;;;;;;5.60;3.07;;;3.50;99.40;;;;;;5022840;28;20224;-82
2023/03/17 05:41:14;;;;;;;4.97;3.03;;;3.40;99.20;;;;;;5023985;28;20302;-79
2023/03/17 05:43:41;;;;;;;4.10;3.20;;;3.50;99.50;;;;;;5048033;28;20696;-79
2023/03/17 05:46:10;;;;;;;6.07;3.60;;;3.40;99.30;;;;;;5050100;28;20247;-79
2023/03/17 05:48:37;;;;;;;4.00;3.17;;;3.40;99.50;;;;;;5034771;28;20755;-79
2023/03/17 05:51:04;;;;;;;6.47;3.50;;;3.40;99.60;;;;;;5030115;28;20224;-80
2023/03/17 05:53:31;;;;;;;4.67;3.60;;;3.40;99.70;;;;;;5031164;28;20234;-80
2023/03/17 05:55:58;;;;;;;4.83;3.20;;;3.40;99.80;;;;;;5029334;28;20230;-80
2023/03/17 05:58:25;;;;;;;5.43;3.47;;;3.30;99.90;;;;;;5016833;28;20248;-80
2023/03/17 06:00:52;;;;;;;6.87;3.70;;;3.30;99.90;;;;;;5026263;28;20232;-79
2023/03/17 06:03:21;;;;;;;5.83;3.80;;;3.30;99.90;;;;;;5027548;28;20756;-79
2023/03/17 06:05:47;;;;;;;5.67;3.80;;;3.40;99.90;;;;;;5029588;28;20260;-79
2023/03/17 06:08:14;;;;;;;4.30;3.40;;;3.40;99.90;;;;;;5029831;28;20229;-79
2023/03/17 06:10:42;;;;;;;5.53;3.60;;;3.40;99.90;;;;;;5031248;28;20225;-79
2023/03/17 06:13:09;;;;;;;5.07;3.67;;;3.40;99.90;;;;;;5010268;28;20241;-79
2023/03/17 06:15:40;;;;;;;7.03;3.67;;;3.50;99.90;;;;;;5009219;28;20967;-80
2023/03/17 06:18:07;;;;;;;5.57;3.47;;;3.50;99.90;;;;;;5010149;28;20230;-79
2023/03/17 06:20:36;;;;;;;5.07;3.60;;;3.60;99.90;;;;;;5028815;28;20217;-80
2023/03/17 06:23:02;;;;;;;6.67;3.77;;;3.60;99.90;;;;;;5027238;28;20230;-80
2023/03/17 06:25:29;;;;;;;6.40;3.83;;;3.70;99.90;;;;;;5014375;28;20240;-79
2023/03/17 06:27:56;;;;;;;6.07;3.80;;;3.70;99.90;;;;;;5010002;28;20244;-79
2023/03/17 06:30:23;;;;;;;5.57;3.67;;;3.80;99.90;;;;;;5002020;28;20342;-80
2023/03/17 06:32:50;;;;;;;6.07;3.20;;;3.90;99.90;;;;;;5008854;28;20224;-80
2023/03/17 06:35:17;;;;;;;7.07;4.97;;;4.00;99.80;;;;;;5008048;28;20231;-79
2023/03/17 06:37:46;;;;;;;14.07;7.13;;;4.00;99.70;;;;;;5009443;28;20222;-80
2023/03/17 06:40:16;;;;;;;8.17;4.60;;;4.00;99.70;;;;;;5008643;28;20705;-79
2023/03/17 06:42:43;;;;;;;8.50;5.37;;;4.10;99.60;;;;;;5015483;28;20291;-80
2023/03/17 06:45:11;;;;;;;6.57;3.77;;;4.20;99.50;;;;;;5028956;28;20229;-80
2023/03/17 06:47:38;;;;;;;5.17;3.90;;;4.10;99.40;;;;;;5013534;28;20233;-79
2023/03/17 06:50:08;;;;;;;7.40;3.87;;;4.20;99.40;;;;;;5007760;28;20226;-80
2023/03/17 06:52:35;;;;;;;8.53;3.60;;;4.20;99.30;;;;;;5009219;28;20227;-80
2023/03/17 06:55:04;;;;;;;6.00;3.50;;;4.20;99.30;;;;;;5008909;28;20249;-79
2023/03/17 06:57:31;;;;;;;5.40;3.50;;;4.20;99.30;;;;;;5008470;28;20233;-79
2023/03/17 06:59:57;;;;;;;6.47;4.00;;;4.20;99.30;;;;;;5009291;28;20233;-79
2023/03/17 07:02:26;;;;;;;5.37;4.00;;;4.20;99.30;;;;;;5000685;28;20235;-79
2023/03/17 07:04:53;;;;;;;5.37;3.80;;;4.20;99.50;;;;;;5013093;28;20239;-78
2023/03/17 07:07:20;;;;;;;5.30;3.67;;;4.20;99.40;;;;;;5014504;28;20782;-79
2023/03/17 07:09:46;;;;;;;5.27;3.60;;;4.30;99.40;;;;;;5015963;28;20226;-79
2023/03/17 07:12:14;;;;;;;5.00;3.87;;;4.30;99.40;;;;;;5012271;28;20252;-79
2023/03/17 07:14:41;;;;;;;8.53;4.40;;;4.40;99.30;;;;;;5013093;28;20600;-79
2023/03/17 07:17:12;;;;;;;5.80;4.03;;;4.40;99.20;;;;;;5012530;28;20251;-79
2023/03/17 07:19:39;;;;;;;6.17;4.17;;;4.50;99.50;;;;;;5013846;28;20229;-79
2023/03/17 07:22:06;;;;;;;7.07;4.23;;;4.60;99.10;;;;;;5014650;28;20258;-79
2023/03/17 07:24:33;;;;;;;5.40;3.37;;;4.60;99.10;;;;;;5014864;28;20231;-79
2023/03/17 07:26:59;;;;;;;5.73;3.87;;;4.70;99.10;;;;;;5014649;28;20235;-79
2023/03/17 07:29:28;;;;;;;6.83;4.00;;;4.80;98.90;;;;;;5014158;28;20258;-79
2023/03/17 07:31:55;;;;;;;5.40;4.30;;;4.90;98.90;;;;;;5015354;28;20316;-79
2023/03/17 07:34:22;;;;;;;6.43;4.07;;;4.90;98.70;;;;;;5014548;28;20237;-79
2023/03/17 07:36:48;;;;;;;5.77;3.73;;;5.00;98.70;;;;;;5015516;28;20237;-79
2023/03/17 07:39:15;;;;;;;6.03;4.37;;;5.10;98.60;;;;;;5015068;28;20325;-79
2023/03/17 07:41:42;;;;;;;5.93;4.00;;;5.20;98.30;;;;;;5014370;28;20318;-79
2023/03/17 07:44:10;;;;;;;7.50;3.53;;;5.40;98.20;;;;;;5012869;28;20228;-79
2023/03/17 07:46:38;;;;;;;5.73;3.80;;;5.50;97.90;;;;;;5013338;28;20260;-79
2023/03/17 07:49:05;;;;;;;5.07;4.13;;;5.70;98.00;;;;;;5015549;28;20226;-79
2023/03/17 07:51:31;;;;;;;7.63;4.43;;;5.90;97.60;;;;;;5013660;28;20231;-79
2023/03/17 07:54:02;;;;;;;6.47;3.90;;;6.10;97.70;;;;;;5015025;28;20227;-79
2023/03/17 07:56:29;;;;;;;6.20;3.70;;;6.40;97.30;;;;;;5015423;28;20231;-79
2023/03/17 07:58:57;;;;;;;6.67;4.33;;;6.60;97.00;;;;;;5016533;28;20291;-79
2023/03/17 08:01:24;;;;;;;5.13;3.80;;;6.80;96.70;;;;;;5015169;28;20231;-79
2023/03/17 08:03:53;;;;;;;9.37;4.63;;;7.00;96.40;;;;;;5014798;28;20238;-79
2023/03/17 08:06:20;;;;;;;7.27;3.90;;;7.10;95.80;;;;;;5015027;28;20234;-79
2023/03/17 08:08:47;;;;;;;7.33;5.07;;;7.20;96.00;;;;;;5016299;28;20296;-79
2023/03/17 08:11:13;;;;;;;6.20;4.10;;;7.20;95.40;;;;;;5015928;28;20227;-79
2023/03/17 08:13:40;;;;;;;7.23;3.90;;;7.30;95.70;;;;;;5015410;28;20722;-79
2023/03/17 08:16:07;;;;;;;5.93;3.90;;;7.40;95.50;;;;;;5012910;28;20780;-79
2023/03/17 08:18:34;;;;;;;7.73;4.23;;;7.50;95.40;;;;;;5014952;28;20317;-79
2023/03/17 08:21:02;;;;;;;4.77;3.50;;;7.70;95.60;;;;;;5014538;28;20267;-79
2023/03/17 08:23:29;;;;;;;5.53;3.60;;;7.90;94.90;;;;;;5014643;28;20298;-79
2023/03/17 08:25:57;;;;;;;7.73;4.30;;;8.20;94.70;;;;;;5013466;28;20230;-79
2023/03/17 08:28:24;;;;;;;4.47;3.50;;;8.40;95.20;;;;;;5012726;28;20247;-79
2023/03/17 08:30:53;;;;;;;4.93;3.53;;;8.70;95.00;;;;;;5013543;28;20229;-79
2023/03/17 08:33:20;;;;;;;6.17;3.93;;;9.10;95.00;;;;;;5014601;28;20293;-79
2023/03/17 08:35:47;;;;;;;6.60;4.33;;;9.50;93.00;;;;;;5015025;28;20226;-79
2023/03/17 08:38:15;;;;;;;4.87;3.30;;;9.70;93.30;;;;;;5009577;28;20225;-77
2023/03/17 08:40:42;;;;;;;4.67;3.63;;;10.00;92.40;;;;;;5006693;28;20622;-77
2023/03/17 08:43:08;;;;;;;6.40;4.40;;;10.20;92.90;;;;;;5005421;28;20241;-77
2023/03/17 08:45:35;;;;;;;4.43;3.70;;;10.30;91.70;;;;;;5007621;28;20235;-77
2023/03/17 08:48:02;;;;;;;5.40;3.77;;;10.60;91.00;;;;;;5005810;28;20614;-77
2023/03/17 08:50:29;;;;;;;4.93;3.80;;;10.80;91.20;;;;;;5007748;28;20234;-77
2023/03/17 08:52:56;;;;;;;5.83;3.53;;;11.10;90.80;;;;;;5039136;28;20311;-77
2023/03/17 08:55:24;;;;;;;5.40;3.97;;;11.40;91.10;;;;;;5026909;28;20227;-78
2023/03/17 09:00:39;;;;;;;6.03;3.83;;;12.00;87.60;;;;;;5014802;28;21577;-96
2023/03/17 09:03:07;;;;;;;4.77;3.87;;;12.40;86.80;;;;;;5012854;28;20286;-96
2023/03/17 09:05:35;;;;;;;7.47;3.70;;;12.60;85.70;;;;;;5018781;28;20265;-96
2023/03/17 09:08:02;;;;;;;5.57;3.67;;;12.80;82.60;;;;;;5023395;28;20208;-96
2023/03/17 09:10:31;;;;;;;5.43;3.60;;;13.00;83.70;;;;;;4994132;28;20213;-96
2023/03/17 09:13:02;;;;;;;4.60;3.83;;;13.30;83.50;;;;;;5000182;28;20228;-96
2023/03/17 09:15:30;;;;;;;4.87;3.80;;;13.50;79.50;;;;;;4994416;28;20232;-96
2023/03/17 09:17:57;;;;;;;5.93;3.67;;;13.60;80.30;;;;;;4986014;28;20209;-96
2023/03/17 09:20:24;;;;;;;4.73;3.63;;;13.80;80.10;;;;;;5000851;28;20224;-96
2023/03/17 09:22:55;;;;;;;7.90;3.80;;;14.10;81.00;;;;;;4991034;28;20334;-96
2023/03/17 09:25:22;;;;;;;4.87;3.67;;;14.30;79.00;;;;;;4995557;28;20196;-96
2023/03/17 09:35:33;;;;;;;8.93;3.90;;;14.70;72.50;;;;;;4891505;29;20217;-96
2023/03/17 09:38:02;;;;;;;4.83;3.60;;;14.70;73.10;;;;;;4952633;28;20220;-96
2023/03/17 09:40:33;;;;;;;5.73;2.90;;;14.70;74.50;;;;;;4985254;28;20198;-96
2023/03/17 09:43:13;;;;;;;4.63;3.30;;;14.70;74.80;;;;;;5016663;28;20209;-96
2023/03/17 09:45:41;;;;;;;4.80;3.33;;;14.70;73.80;;;;;;5023886;28;20201;-96
2023/03/17 09:48:23;;;;;;;5.10;3.70;;;14.80;75.80;;;;;;4992205;28;20211;-96
2023/03/17 09:50:56;;;;;;;5.17;3.13;;;14.90;73.00;;;;;;4993297;28;20213;-96
2023/03/17 09:53:27;;;;;;;5.37;3.33;;;15.00;73.50;;;;;;4994154;28;20194;-96
2023/03/17 09:55:58;;;;;;;4.53;3.20;;;15.00;69.80;;;;;;4991451;28;20227;-96
2023/03/17 09:58:35;;;;;;;5.50;3.37;;;15.00;72.10;;;;;;4993082;28;20212;-96
2023/03/17 10:01:09;;;;;;;4.87;3.30;;;15.10;74.40;;;;;;4996908;28;20208;-96
2023/03/17 10:03:37;;;;;;;4.10;3.00;;;15.30;73.60;;;;;;4995526;28;20215;-96
2023/03/17 10:06:33;;;;;;;5.17;2.83;;;15.40;71.90;;;;;;4980449;28;20215;-96
2023/03/17 10:09:14;;;;;;;4.40;2.90;;;15.50;70.30;;;;;;4982172;28;20222;-96
2023/03/17 10:12:07;;;;;;;3.70;2.63;;;15.60;69.60;;;;;;4997203;28;20200;-96
2023/03/17 10:14:59;;;;;;;3.80;3.17;;;15.70;70.30;;;;;;4951754;28;20198;-96
2023/03/17 10:17:30;;;;;;;4.63;3.13;;;15.70;70.00;;;;;;5020986;23;20235;-81
2023/03/17 10:20:00;;;;;;;4.53;3.33;;;15.80;70.20;;;;;;4968017;28;20781;-81
2023/03/17 10:22:34;;;;;;;4.50;3.00;;;15.80;68.60;;;;;;4968155;28;20231;-81
2023/03/17 10:25:05;;;;;;;3.83;3.00;;;15.80;69.30;;;;;;4962459;28;20229;-80
2023/03/17 10:27:36;;;;;;;3.70;2.90;;;15.80;70.70;;;;;;4983106;28;20234;-81
2023/03/17 10:30:04;;;;;;;3.60;3.07;;;15.80;68.90;;;;;;4990041;28;20870;-80
2023/03/17 10:32:32;;;;;;;4.87;3.10;;;15.70;70.00;;;;;;4967687;28;20751;-80
2023/03/17 10:34:59;;;;;;;5.17;3.10;;;15.50;68.20;;;;;;4998941;28;20223;-81
2023/03/17 10:37:35;;;;;;;4.50;2.97;;;15.30;69.20;;;;;;4969386;28;20253;-81
2023/03/17 10:40:09;;;;;;;3.17;2.53;;;15.00;69.50;;;;;;4966818;28;20763;-80
2023/03/17 10:42:46;;;;;;;4.13;2.93;;;15.00;70.40;;;;;;4970731;28;20665;-80
2023/03/17 10:45:16;;;;;;;3.83;2.90;;;14.90;69.40;;;;;;4981381;28;20230;-81
2023/03/17 10:47:47;;;;;;;4.90;2.47;;;14.80;69.40;;;;;;4968490;28;20244;-80
2023/03/17 10:50:21;;;;;;;4.53;3.00;;;14.80;70.50;;;;;;4996260;28;21987;-81
2023/03/17 10:52:53;;;;;;;3.00;2.60;;;14.80;71.00;;;;;;4972263;28;20230;-80
2023/03/17 10:55:23;;;;;;;3.90;2.87;;;14.90;70.20;;;;;;4970410;28;20240;-79
2023/03/17 10:57:52;;;;;;;8.57;3.23;;;14.80;70.70;;;;;;4970095;28;20330;-81
2023/03/17 11:00:20;;;;;;;4.47;2.77;;;15.00;70.80;;;;;;4967474;28;20870;-81
2023/03/17 11:02:52;;;;;;;4.10;2.70;;;14.90;70.90;;;;;;4968873;28;20245;-81
2023/03/17 11:05:20;;;;;;;4.80;3.17;;;15.10;72.40;;;;;;4967900;28;20236;-81
2023/03/17 11:07:49;;;;;;;3.47;2.43;;;15.20;71.20;;;;;;4968072;28;20229;-81
2023/03/17 11:10:20;;;;;;;4.23;2.97;;;15.30;71.10;;;;;;4967147;28;20870;-81
2023/03/17 11:12:50;;;;;;;3.93;2.80;;;15.40;69.60;;;;;;4969332;28;20230;-80
2023/03/17 11:15:18;;;;;;;4.20;3.10;;;15.40;68.50;;;;;;4962329;28;20218;-80
2023/03/17 11:17:54;;;;;;;4.10;2.60;;;15.40;69.80;;;;;;4967518;28;20580;-79
2023/03/17 11:20:41;;;;;;;5.27;3.00;;;15.20;68.50;;;;;;4967089;28;20225;-80
2023/03/17 11:23:17;;;;;;;3.63;2.83;;;15.30;70.50;;;;;;4966001;28;20222;-80
2023/03/17 11:25:48;;;;;;;4.40;2.60;;;15.40;70.20;;;;;;4968417;28;20225;-81
2023/03/17 11:28:19;;;;;;;4.27;2.73;;;15.40;71.00;;;;;;4967853;28;20245;-80
2023/03/17 11:30:57;;;;;;;3.90;2.80;;;15.50;70.10;;;;;;4967361;28;20215;-81
2023/03/17 11:33:42;;;;;;;4.50;2.80;;;15.50;69.20;;;;;;4966057;28;20236;-80
2023/03/17 11:36:19;;;;;;;3.10;2.80;;;15.50;68.40;;;;;;4965616;28;20238;-81
2023/03/17 11:38:58;;;;;;;3.53;2.77;;;15.50;69.60;;;;;;4966373;28;20318;-80
2023/03/17 11:41:48;;;;;;;3.63;2.70;;;15.60;69.90;;;;;;4967658;28;20224;-81
2023/03/17 11:44:51;;;;;;;2.90;2.23;;;15.60;69.20;;;;;;4963376;28;20222;-81
2023/03/17 11:47:30;;;;;;;3.33;2.40;;;15.50;69.10;;;;;;4954486;28;20228;-80
2023/03/17 11:50:06;;;;;;;3.00;2.70;;;15.50;70.50;;;;;;4965926;28;20233;-81
2023/03/17 11:52:45;;;;;;;3.50;2.50;;;15.40;70.00;;;;;;4968734;28;20228;-81
2023/03/17 11:55:20;;;;;;;3.20;2.37;;;15.30;70.90;;;;;;4965751;28;20283;-80
2023/03/17 11:57:52;;;;;;;4.40;2.30;;;15.40;71.20;;;;;;4971290;28;20257;-80
2023/03/17 12:00:25;;;;;;;3.80;2.30;;;15.30;70.80;;;;;;4980533;28;20237;-79
2023/03/17 12:02:58;;;;;;;4.43;2.50;;;15.30;69.20;;;;;;4965537;28;20248;-79
2023/03/17 12:05:26;;;;;;;3.73;2.30;;;15.20;69.40;;;;;;4967304;28;20746;-79
2023/03/17 12:07:58;;;;;;;2.87;2.20;;;15.20;70.70;;;;;;4966960;28;20242;-79
2023/03/17 12:10:33;;;;;;;2.93;2.00;;;15.20;70.10;;;;;;4966399;28;20228;-78
2023/03/17 12:13:05;;;;;;;3.60;2.40;;;15.30;71.40;;;;;;4982344;28;20222;-79
2023/03/17 12:15:36;;;;;;;3.57;2.60;;;15.40;71.90;;;;;;4967720;28;20675;-80
2023/03/17 12:18:06;;;;;;;3.67;2.40;;;15.50;71.50;;;;;;4969190;28;20240;-80
2023/03/17 12:20:39;;;;;;;3.37;2.43;;;15.70;72.30;;;;;;4967343;28;20855;-80
2023/03/17 12:23:14;;;;;;;4.60;2.50;;;15.90;72.10;;;;;;4966879;28;20288;-80
2023/03/17 12:25:51;;;;;;;3.43;2.10;;;16.00;71.00;;;;;;4968640;28;20214;-79
2023/03/17 12:28:23;;;;;;;3.37;2.17;;;16.20;70.30;;;;;;4965925;28;20253;-78
2023/03/17 12:30:53;;;;;;;3.80;2.17;;;16.30;69.60;;;;;;4967188;28;20260;-78
2023/03/17 12:33:24;;;;;;;3.40;2.10;;;16.40;69.90;;;;;;4964923;28;20290;-78
2023/03/17 12:35:51;;;;;;;3.10;2.20;;;16.40;68.50;;;;;;4962342;28;20840;-78
2023/03/17 12:38:22;;;;;;;3.10;2.80;;;16.40;69.20;;;;;;4961783;28;20230;-79
2023/03/17 12:41:13;;;;;;;3.13;2.30;;;16.50;69.60;;;;;;4963096;28;20272;-78
2023/03/17 12:43:48;;;;;;;2.77;2.37;;;16.50;69.20;;;;;;4964470;28;20244;-78
2023/03/17 12:46:28;;;;;;;2.83;2.10;;;16.50;67.80;;;;;;4965142;28;20248;-77
2023/03/17 12:49:23;;;;;;;2.53;2.20;;;16.60;67.70;;;;;;4965920;28;20326;-78
2023/03/17 12:52:08;;;;;;;3.67;2.17;;;16.60;67.30;;;;;;4943196;28;20226;-78
2023/03/17 12:54:36;;;;;;;4.90;2.30;;;16.70;67.80;;;;;;4966166;28;20226;-80
2023/03/17 12:57:12;;;;;;;3.37;2.10;;;16.70;68.60;;;;;;4965821;28;20230;-79
2023/03/17 12:59:42;;;;;;;3.07;2.00;;;16.70;65.90;;;;;;4965091;28;20240;-79
2023/03/17 13:02:17;;;;;;;2.40;1.77;;;16.70;66.80;;;;;;4964541;28;20237;-78
2023/03/17 13:04:52;;;;;;;3.60;2.03;;;16.70;65.80;;;;;;4965631;28;20247;-79
2023/03/17 13:07:23;;;;;;;3.33;1.70;;;16.70;67.20;;;;;;4962607;28;20241;-78
2023/03/17 13:10:10;;;;;;;3.47;2.27;;;16.80;67.20;;;;;;4980824;28;20241;-78
2023/03/17 13:13:04;;;;;;;2.97;2.10;;;16.90;66.20;;;;;;4962672;28;20888;-79
2023/03/17 13:15:53;;;;;;;2.33;2.00;;;17.00;67.10;;;;;;4962217;28;20227;-78